Time;durP1;ratioP1;P1;durP2;ratioP2;P2;SDS_P1;SDS_P2;PMS_P1;PMS_P2;Temp;Humidity;BMP_temperature;BMP_pressure;BME280_temperature;BME280_humidity;BME280_pressure;Samples;Min_cycle;Max_cycle;Signal;HPM_P1;HPM_P2
2023/03/29 00:05:18;;;;;;;32.80;12.50;;;;;;;-3.83;65.26;101284.50;105445;1257;69218;-59
2023/03/29 00:09:08;;;;;;;28.90;11.70;;;;;;;-3.87;65.44;101286.42;105360;1255;73716;-55
2023/03/29 00:12:56;;;;;;;27.50;12.20;;;;;;;-3.91;65.54;101288.48;105298;1258;83696;-59
2023/03/29 00:16:45;;;;;;;37.90;14.40;;;;;;;-3.98;65.62;101283.63;105350;1256;71667;-58
2023/03/29 00:20:35;;;;;;;59.90;21.00;;;;;;;-4.03;65.76;101287.73;105362;1258;69311;-59
2023/03/29 00:24:16;;;;;;;46.20;17.40;;;;;;;-4.05;66.01;101287.64;105396;1254;69086;-60
2023/03/29 00:28:05;;;;;;;35.10;13.50;;;;;;;-4.05;65.78;101286.29;105402;1258;74377;-60
2023/03/29 00:31:55;;;;;;;30.10;12.90;;;;;;;-4.02;65.96;101284.69;105367;1254;83408;-59
2023/03/29 00:35:45;;;;;;;29.30;11.30;;;;;;;-4.05;65.82;101282.20;105286;1258;73852;-59
2023/03/29 00:39:32;;;;;;;80.10;25.10;;;;;;;-4.08;65.87;101276.77;105255;1257;69166;-56
2023/03/29 00:43:31;;;;;;;;;;;;;;;;;;;;;
2023/03/29 00:47:10;;;;;;;35.20;13.00;;;;;;;-3.96;66.39;101264.21;105417;1264;75125;-57
2023/03/29 00:51:00;;;;;;;36.60;14.10;;;;;;;-3.94;66.46;101261.22;105335;1257;83125;-59
2023/03/29 00:58:38;;;;;;;39.90;14.30;;;;;;;-3.97;66.57;101255.30;105379;1257;69542;-54
2023/03/29 01:02:25;;;;;;;34.90;14.10;;;;;;;-4.03;66.61;101252.02;105337;1257;69129;-52
2023/03/29 01:06:04;;;;;;;;;;;;;;;;;;;;;
2023/03/29 01:13:49;;;;;;;34.40;13.50;;;;;;;-4.09;67.13;101244.30;104475;1271;73770;-53
2023/03/29 01:17:39;;;;;;;30.60;11.80;;;;;;;-4.02;67.34;101236.35;104466;1267;69297;-57
2023/03/29 01:21:33;;;;;;;34.10;13.10;;;;;;;-4.02;67.33;101231.58;104449;1269;69291;-57
2023/03/29 01:29:30;;;;;;;;;;;;;;;;;;;;;
2023/03/29 01:33:04;;;;;;;;;;;;;;;;;;;;;
2023/03/29 01:37:20;;;;;;;30.20;13.40;;;;;;;-4.05;67.81;101216.45;101838;1295;601696;-58
2023/03/29 01:41:08;;;;;;;28.60;13.20;;;;;;;-3.93;68.00;101209.68;103518;1284;69238;-58
2023/03/29 01:44:50;;;;;;;;;;;;;;;;;;;;;
2023/03/29 01:48:48;;;;;;;26.80;12.30;;;;;;;-3.61;68.01;101205.51;103320;1284;73053;-60
2023/03/29 01:52:47;;;;;;;32.00;12.80;;;;;;;-3.48;67.92;101208.48;99263;1285;82565;-61
2023/03/29 01:56:50;;;;;;;27.80;13.80;;;;;;;-3.39;67.95;101206.56;102444;1293;69285;-60
2023/03/29 02:00:37;;;;;;;33.70;12.90;;;;;;;-3.32;67.84;101208.16;102344;1291;69392;-61
2023/03/29 02:19:41;;;;;;;31.50;14.90;;;;;;;-3.20;67.89;101205.30;108339;1269;67074;-59
2023/03/29 02:23:36;;;;;;;35.80;16.00;;;;;;;-3.20;68.05;101201.70;108323;1268;66959;-59
2023/03/29 02:27:13;;;;;;;;;;;;;;;;;;;;;
2023/03/29 02:31:04;;;;;;;32.20;14.50;;;;;;;-3.16;68.31;101193.64;103942;1269;82873;-59
2023/03/29 02:34:28;;;;;;;;;;;;;;;;;;;;;
2023/03/29 02:37:55;;;;;;;33.30;13.50;;;;;;;-2.97;68.27;101187.73;108258;1269;67233;-59
2023/03/29 02:41:42;;;;;;;;;;;;;;;;;;;;;
2023/03/29 02:45:26;;;;;;;30.50;14.10;;;;;;;-2.81;68.32;101180.34;108349;1269;83573;-59
2023/03/29 02:49:14;;;;;;;27.50;13.00;;;;;;;-2.76;68.34;101179.79;108262;1269;74793;-59
2023/03/29 02:53:01;;;;;;;;;;;;;;;;;;;;;
2023/03/29 02:56:41;;;;;;;;;;;;;;;;;;;;;
2023/03/29 03:00:23;;;;;;;;;;;;;;;;;;;;;
2023/03/29 03:04:04;;;;;;;;;;;;;;;;;;;;;
2023/03/29 03:07:45;;;;;;;33.70;15.40;;;;;;;-2.66;68.83;101152.55;108556;1267;73769;-59
2023/03/29 03:11:19;;;;;;;;;;;;;;;;;;;;;
2023/03/29 03:15:02;;;;;;;30.80;15.00;;;;;;;-2.74;68.58;101149.08;108583;1267;66827;-59
2023/03/29 03:18:44;;;;;;;41.20;17.00;;;;;;;-2.77;68.68;101149.31;108631;1266;73326;-59
2023/03/29 03:22:22;;;;;;;;;;;;;;;;;;;;;
2023/03/29 03:29:39;;;;;;;;;;;;;;;;;;;;;
2023/03/29 03:33:22;;;;;;;33.00;15.30;;;;;;;-2.75;69.17;101137.23;108081;1267;66964;-59
2023/03/29 03:37:16;;;;;;;30.30;14.50;;;;;;;-2.75;69.13;101130.21;108537;1267;72273;-59
2023/03/29 03:41:05;;;;;;;28.40;13.30;;;;;;;-2.75;69.06;101126.80;108569;1267;83391;-59
2023/03/29 03:44:40;;;;;;;;;;;;;;;;;;;;;
2023/03/29 03:52:26;;;;;;;33.70;15.00;;;;;;;-2.67;69.49;101115.39;108423;1266;66932;-59
2023/03/29 03:56:15;;;;;;;31.50;14.50;;;;;;;-2.69;69.53;101117.04;108613;1267;75509;-59
2023/03/29 04:00:17;;;;;;;;;;;;;;;;;;;;;
2023/03/29 04:04:19;;;;;;;;;;;;;;;;;;;;;
2023/03/29 04:16:00;;;;;;;36.00;15.50;;;;;;;-2.76;69.91;101114.13;107765;1274;73235;-59
2023/03/29 04:22:53;;;;;;;32.80;15.70;;;;;;;-2.76;69.86;101110.69;107665;1274;73887;-59
2023/03/29 04:26:24;;;;;;;41.90;18.10;;;;;;;-2.70;69.96;101110.52;107691;1274;67166;-59
2023/03/29 04:30:13;;;;;;;37.00;16.80;;;;;;;-2.61;70.18;101105.97;107658;1275;67052;-60
2023/03/29 04:33:46;;;;;;;28.00;13.70;;;;;;;-2.56;69.95;101106.80;107468;1274;73109;-59
2023/03/29 04:37:24;;;;;;;29.50;14.10;;;;;;;-2.59;69.98;101106.02;107738;1273;85251;-59
2023/03/29 04:40:58;;;;;;;28.80;14.40;;;;;;;-2.63;70.22;101102.83;107664;1273;73079;-59
2023/03/29 04:44:49;;;;;;;;;;;;;;;;;;;;;
2023/03/29 04:48:35;;;;;;;;;;;;;;;;;;;;;
2023/03/29 04:55:57;;;;;;;30.30;14.60;;;;;;;-2.56;70.58;101098.58;108082;1270;83684;-59
2023/03/29 04:58:58;;;;;;;;;;;;;;;;;;;;;
2023/03/29 05:01:46;;;;;;;31.20;13.80;;;;;;;-2.59;70.52;101091.48;107806;1272;67751;-56
2023/03/29 05:04:35;;;;;;;28.70;13.80;;;;;;;-2.57;70.76;101087.10;107852;1272;67349;-54
2023/03/29 05:07:38;;;;;;;30.30;13.70;;;;;;;-2.53;70.67;101087.56;108014;1272;73656;-57
2023/03/29 05:10:52;;;;;;;;;;;;;;;;;;;;;
2023/03/29 05:14:01;;;;;;;27.40;13.80;;;;;;;-2.39;70.53;101082.80;107701;1276;73111;-56
2023/03/29 05:17:00;;;;;;;27.90;13.20;;;;;;;-2.28;70.56;101084.27;107857;1272;67102;-56
2023/03/29 05:20:11;;;;;;;25.00;12.70;;;;;;;-2.16;70.82;101078.23;107845;1272;67834;-57
2023/03/29 05:23:17;;;;;;;28.40;13.50;;;;;;;-2.03;70.80;101081.31;108231;1267;73388;-56
2023/03/29 05:26:30;;;;;;;23.70;12.90;;;;;;;-1.94;70.92;101081.73;108273;1267;83900;-56
2023/03/29 05:29:21;;;;;;;26.20;13.60;;;;;;;-1.87;70.98;101083.77;108282;1267;74040;-56
2023/03/29 05:32:30;;;;;;;25.40;13.30;;;;;;;-1.84;70.81;101084.70;108179;1268;66991;-54
2023/03/29 05:35:42;;;;;;;;;;;;;;;;;;;;;
2023/03/29 05:39:01;;;;;;;29.70;13.50;;;;;;;-1.75;70.87;101081.15;108262;1269;73392;-56
2023/03/29 05:42:00;;;;;;;29.10;13.80;;;;;;;-1.72;70.85;101078.12;108258;1267;82784;-52
2023/03/29 05:45:21;;;;;;;26.60;13.60;;;;;;;-1.68;70.92;101074.12;108167;1267;71846;-53
2023/03/29 05:48:19;;;;;;;28.00;13.40;;;;;;;-1.62;70.83;101078.17;108249;1268;67150;-51
2023/03/29 05:51:23;;;;;;;;;;;;;;;;;;;;;
2023/03/29 05:54:07;;;;;;;26.40;12.70;;;;;;;-1.49;70.89;101069.74;108246;1268;71866;-55
2023/03/29 05:57:11;;;;;;;24.00;11.70;;;;;;;-1.39;70.84;101066.55;108196;1267;83520;-52
2023/03/29 06:00:35;;;;;;;;;;;;;;;;;;;;;
2023/03/29 06:03:48;;;;;;;;;;;;;;;;;;;;;
2023/03/29 06:06:39;;;;;;;26.50;11.30;;;;;;;-0.90;70.37;101050.44;108209;1268;67061;-55
2023/03/29 06:09:30;;;;;;;24.80;11.70;;;;;;;-0.75;70.31;101052.13;108250;1269;72343;-55
2023/03/29 06:12:19;;;;;;;;;;;;;;;;;;;;;
2023/03/29 06:15:32;;;;;;;;;;;;;;;;;;;;;
2023/03/29 06:18:19;;;;;;;46.10;17.80;;;;;;;-0.30;70.26;101049.52;108148;1269;67528;-54
2023/03/29 06:21:03;;;;;;;50.90;16.90;;;;;;;-0.17;70.31;101045.44;108216;1267;67156;-58
2023/03/29 06:23:46;;;;;;;52.90;23.00;;;;;;;-0.05;70.20;101040.48;108269;1268;72200;-58
2023/03/29 06:26:38;;;;;;;32.40;13.70;;;;;;;0.07;70.17;101043.77;108190;1268;82957;-57
2023/03/29 06:29:35;;;;;;;37.40;14.40;;;;;;;0.17;69.97;101044.79;108189;1268;73912;-57
2023/03/29 06:32:32;;;;;;;32.70;13.30;;;;;;;0.25;69.70;101043.19;108250;1267;67005;-57
2023/03/29 06:35:20;;;;;;;;;;;;;;;0.35;69.73;101042.83;108217;1269;67056;-58
2023/03/29 06:38:25;;;;;;;34.90;15.40;;;;;;;0.45;69.56;101039.53;108206;1267;72307;-57
2023/03/29 06:41:19;;;;;;;31.70;13.30;;;;;;;0.54;69.26;101039.84;108166;1268;82866;-57
2023/03/29 06:44:49;;;;;;;32.80;14.10;;;;;;;0.63;69.21;101035.33;107750;1271;74852;-56
2023/03/29 06:47:32;;;;;;;32.40;14.30;;;;;;;0.71;69.03;101031.82;107801;1272;67150;-57
2023/03/29 06:50:31;;;;;;;46.40;21.30;;;;;;;0.79;68.94;101029.16;108099;1268;67776;-58
2023/03/29 06:53:22;;;;;;;;;;;;;;;0.89;68.86;101032.74;108100;1267;73338;-58
2023/03/29 06:56:11;;;;;;;48.60;16.50;;;;;;;0.99;68.73;101040.77;108136;1268;83568;-58
2023/03/29 06:59:00;;;;;;;221.00;62.40;;;;;;;1.08;68.38;101039.84;108822;1257;74385;-58
2023/03/29 07:02:06;;;;;;;105.40;27.90;;;;;;;1.18;68.60;101038.60;108803;1258;67044;-58
2023/03/29 07:04:59;;;;;;;49.00;15.70;;;;;;;1.33;68.16;101028.27;108788;1257;67728;-58
2023/03/29 07:07:58;;;;;;;52.50;16.40;;;;;;;1.40;67.93;101031.25;108815;1261;73426;-58
2023/03/29 07:10:52;;;;;;;40.20;13.10;;;;;;;1.50;67.72;101030.86;108886;1261;81472;-58
2023/03/29 07:13:45;;;;;;;40.50;15.00;;;;;;;1.56;67.57;101030.91;108849;1258;73725;-58
2023/03/29 07:16:23;;;;;;;62.10;24.40;;;;;;;1.62;67.25;101026.66;108821;1257;67237;-57
2023/03/29 07:19:02;;;;;;;65.10;24.40;;;;;;;1.68;67.22;101027.40;108833;1257;67623;-56
2023/03/29 07:21:53;;;;;;;36.30;15.80;;;;;;;1.77;67.27;101028.35;108878;1257;72332;-58
2023/03/29 07:24:35;;;;;;;36.50;15.00;;;;;;;1.87;67.28;101031.19;108830;1261;84290;-58
2023/03/29 07:27:07;;;;;;;38.10;15.10;;;;;;;1.92;67.13;101034.86;108933;1256;73914;-55
2023/03/29 07:29:49;;;;;;;32.70;12.60;;;;;;;1.97;67.24;101038.34;108784;1257;66959;-56
2023/03/29 07:32:31;;;;;;;34.20;16.00;;;;;;;2.03;66.93;101032.02;108856;1262;66930;-55
2023/03/29 07:35:42;;;;;;;43.90;20.40;;;;;;;2.17;67.07;101028.50;108697;1259;73281;-55
2023/03/29 07:38:17;;;;;;;29.50;13.30;;;;;;;2.28;66.97;101028.77;108789;1257;83569;-56
2023/03/29 07:40:54;;;;;;;16.60;9.90;;;;;;;2.38;66.81;101027.45;108807;1257;72935;-57
2023/03/29 07:43:53;;;;;;;18.40;9.50;;;;;;;2.50;67.13;101028.21;108991;1256;67203;-58
2023/03/29 07:46:41;;;;;;;18.70;9.30;;;;;;;2.67;66.73;101027.28;109114;1258;66862;-59
2023/03/29 07:49:38;;;;;;;16.90;9.80;;;;;;;2.84;66.77;101027.70;109156;1260;73038;-59
2023/03/29 07:52:31;;;;;;;16.90;9.00;;;;;;;3.02;66.42;101023.46;109192;1258;83487;-59
2023/03/29 07:55:23;;;;;;;;;;;;;;;;;;;;;
2023/03/29 07:58:28;;;;;;;18.10;7.30;;;;;;;3.32;66.05;101014.58;109081;1256;66896;-60
2023/03/29 08:01:17;;;;;;;;;;;;;;;;;;;;;
2023/03/29 08:04:21;;;;;;;32.60;15.70;;;;;;;3.66;65.89;101005.99;109077;1257;73015;-59
2023/03/29 08:07:23;;;;;;;21.10;10.50;;;;;;;3.80;65.49;101001.52;109007;1257;82929;-59
2023/03/29 08:10:33;;;;;;;13.80;6.80;;;;;;;4.00;65.48;100996.48;109053;1256;73812;-59
2023/03/29 08:13:25;;;;;;;16.10;7.40;;;;;;;4.13;65.20;100998.04;109118;1257;67029;-59
2023/03/29 08:16:27;;;;;;;17.30;8.60;;;;;;;4.23;64.97;100992.30;109165;1257;66794;-59
2023/03/29 08:19:13;;;;;;;15.60;6.90;;;;;;;4.45;64.88;100989.85;109144;1256;73125;-59
2023/03/29 08:22:27;;;;;;;13.10;5.90;;;;;;;4.66;64.85;100988.58;109079;1257;84307;-59
2023/03/29 08:25:29;;;;;;;13.70;6.50;;;;;;;4.80;64.23;100989.58;109065;1257;72749;-59
2023/03/29 08:28:08;;;;;;;16.00;6.80;;;;;;;4.91;64.33;100988.83;109072;1257;66928;-59
2023/03/29 08:31:14;;;;;;;17.40;8.00;;;;;;;5.11;63.91;100984.92;109017;1257;66864;-59
2023/03/29 08:33:50;;;;;;;43.30;21.00;;;;;;;5.20;63.69;100983.50;109101;1257;73000;-57
2023/03/29 08:36:52;;;;;;;25.10;13.70;;;;;;;5.34;63.52;100984.96;109122;1257;83462;-56
2023/03/29 08:39:29;;;;;;;14.50;8.30;;;;;;;5.53;63.29;100984.52;109076;1257;71943;-58
2023/03/29 08:42:48;;;;;;;13.20;7.30;;;;;;;5.82;63.43;100983.06;109030;1257;66920;-53
2023/03/29 08:45:34;;;;;;;9.60;6.00;;;;;;;6.19;63.08;100983.63;109050;1257;67007;-55
2023/03/29 08:48:08;;;;;;;12.90;4.70;;;;;;;6.40;62.52;100978.21;109053;1257;74215;-56
2023/03/29 08:50:53;;;;;;;11.30;6.40;;;;;;;6.61;61.99;100977.81;109062;1256;82139;-56
2023/03/29 08:53:25;;;;;;;12.20;6.60;;;;;;;6.82;61.55;100977.06;109118;1257;72714;-56
2023/03/29 08:56:14;;;;;;;11.50;5.90;;;;;;;6.96;61.15;100969.23;108994;1257;66846;-56
2023/03/29 08:59:26;;;;;;;10.10;5.50;;;;;;;7.21;60.80;100969.58;108969;1257;66737;-56
2023/03/29 09:01:56;;;;;;;9.20;4.10;;;;;;;7.41;60.34;100971.20;109061;1257;73960;-56
2023/03/29 09:04:30;;;;;;;;;;;;;;;7.54;59.79;100964.92;109218;1256;83362;-56
2023/03/29 09:07:26;;;;;;;13.40;4.80;;;;;;;7.65;59.08;100957.63;109064;1256;72817;-56
2023/03/29 09:09:56;;;;;;;8.90;4.70;;;;;;;7.73;58.68;100960.26;109032;1257;66942;-56
2023/03/29 09:12:43;;;;;;;8.70;4.50;;;;;;;7.86;58.58;100962.14;109101;1256;66828;-56
2023/03/29 09:15:22;;;;;;;11.70;5.40;;;;;;;7.93;57.80;100953.83;109108;1257;73143;-57
2023/03/29 09:18:10;;;;;;;10.50;5.20;;;;;;;8.12;57.80;100951.42;109095;1257;82534;-57
2023/03/29 09:21:08;;;;;;;;;;;;;;;8.37;57.43;100951.50;109009;1257;73877;-57
2023/03/29 09:23:39;;;;;;;7.70;4.10;;;;;;;8.59;56.86;100942.37;108987;1257;67001;-56
2023/03/29 09:26:21;;;;;;;10.00;4.80;;;;;;;8.82;56.59;100936.15;109141;1257;66852;-56
2023/03/29 09:29:19;;;;;;;8.50;4.50;;;;;;;8.97;56.23;100933.73;109085;1258;74225;-57
2023/03/29 09:31:48;;;;;;;10.70;4.40;;;;;;;9.11;55.93;100932.38;109083;1257;83471;-57
2023/03/29 09:34:20;;;;;;;10.00;5.10;;;;;;;9.20;55.88;100929.56;109116;1257;73868;-57
2023/03/29 09:37:29;;;;;;;7.70;4.30;;;;;;;9.35;55.43;100925.38;109080;1256;66949;-57
2023/03/29 09:39:58;;;;;;;8.50;3.80;;;;;;;9.46;54.88;100922.14;109040;1256;67247;-63
2023/03/29 09:42:40;;;;;;;6.30;3.80;;;;;;;9.53;54.17;100921.98;109057;1256;73151;-58
2023/03/29 09:45:09;;;;;;;11.00;4.80;;;;;;;9.65;54.34;100917.84;109099;1257;83924;-57
2023/03/29 09:47:52;;;;;;;6.50;3.70;;;;;;;9.81;54.00;100923.38;109099;1256;72701;-58
2023/03/29 09:50:41;;;;;;;8.30;3.30;;;;;;;9.91;53.84;100919.98;109040;1257;66858;-58
2023/03/29 09:53:10;;;;;;;8.00;4.10;;;;;;;9.93;52.95;100917.66;109139;1256;66777;-58
2023/03/29 09:55:44;;;;;;;12.20;4.40;;;;;;;9.96;52.87;100915.48;109165;1256;74205;-58
2023/03/29 09:58:35;;;;;;;6.60;2.90;;;;;;;10.04;52.64;100912.65;109191;1256;83394;-58
2023/03/29 10:01:09;;;;;;;7.30;3.10;;;;;;;10.06;52.30;100912.60;109150;1256;73748;-58
2023/03/29 10:03:38;;;;;;;6.60;2.80;;;;;;;10.06;52.04;100909.27;109119;1256;67356;-62
2023/03/29 10:06:13;;;;;;;8.40;3.60;;;;;;;10.09;51.78;100908.52;109117;1256;66859;-62
2023/03/29 10:08:46;;;;;;;8.20;3.40;;;;;;;10.21;51.73;100907.13;109111;1256;74216;-61
2023/03/29 10:11:33;;;;;;;6.00;2.80;;;;;;;10.31;51.51;100904.62;109156;1256;81972;-60
2023/03/29 10:14:20;;;;;;;8.70;4.00;;;;;;;10.37;51.17;100899.21;109130;1256;72702;-60
2023/03/29 10:16:54;;;;;;;10.70;5.10;;;;;;;10.38;50.62;100893.75;109012;1257;66878;-59
2023/03/29 10:19:33;;;;;;;9.00;4.50;;;;;;;10.37;50.44;100891.02;109123;1256;66869;-59
2023/03/29 10:22:04;;;;;;;8.50;3.80;;;;;;;10.37;50.25;100891.52;109171;1256;72919;-59
2023/03/29 10:24:33;;;;;;;6.10;3.30;;;;;;;10.37;50.11;100890.65;109134;1256;83367;-59
2023/03/29 10:27:03;;;;;;;6.10;3.30;;;;;;;10.41;50.16;100888.61;109186;1256;72656;-60
2023/03/29 10:29:36;;;;;;;;;;;;;;;10.46;49.94;100884.61;109085;1256;66921;-60
2023/03/29 10:32:37;;;;;;;8.20;3.10;;;;;;;10.43;49.35;100883.31;109129;1256;66973;-60
2023/03/29 10:35:22;;;;;;;5.80;3.30;;;;;;;10.39;49.21;100878.02;109033;1256;72978;-59
2023/03/29 10:37:52;;;;;;;7.80;3.60;;;;;;;10.58;49.36;100883.42;109141;1256;82618;-59
2023/03/29 10:40:25;;;;;;;7.50;3.20;;;;;;;10.69;49.20;100877.50;109117;1256;73906;-58
2023/03/29 10:42:58;;;;;;;7.60;2.90;;;;;;;10.89;49.25;100870.77;109150;1256;66950;-59
2023/03/29 10:45:29;;;;;;;9.50;3.80;;;;;;;11.12;48.88;100873.71;109160;1256;66889;-59
2023/03/29 10:47:58;;;;;;;6.60;3.90;;;;;;;11.24;48.50;100869.34;109125;1256;72387;-60
2023/03/29 10:50:33;;;;;;;5.60;3.20;;;;;;;11.37;48.24;100855.77;109156;1256;83581;-59
2023/03/29 10:53:02;;;;;;;11.40;3.70;;;;;;;11.56;48.22;100854.80;109174;1256;73814;-61
2023/03/29 10:55:46;;;;;;;6.20;3.30;;;;;;;11.67;47.49;100853.19;109088;1256;66928;-60
2023/03/29 10:58:14;;;;;;;8.30;3.50;;;;;;;11.68;47.68;100852.44;109098;1256;67217;-60
2023/03/29 11:00:54;;;;;;;7.30;3.20;;;;;;;11.79;47.49;100843.14;109166;1256;74182;-60
2023/03/29 11:03:34;;;;;;;8.00;3.20;;;;;;;12.04;47.46;100842.45;109096;1256;83422;-59
2023/03/29 11:06:11;;;;;;;6.80;3.40;;;;;;;12.18;46.72;100833.01;109126;1256;73870;-60
2023/03/29 11:09:11;;;;;;;6.50;3.60;;;;;;;12.45;47.10;100829.20;109144;1256;66952;-60
2023/03/29 11:11:48;;;;;;;6.30;3.50;;;;;;;12.91;46.40;100824.63;109113;1256;66922;-60
2023/03/29 11:14:45;;;;;;;6.90;3.30;;;;;;;13.13;45.94;100821.29;109095;1256;74172;-60
2023/03/29 11:17:26;;;;;;;7.00;3.40;;;;;;;13.39;45.44;100809.00;109105;1256;83527;-60
2023/03/29 11:20:16;;;;;;;8.20;3.50;;;;;;;13.70;45.14;100803.80;109114;1256;74063;-59
2023/03/29 11:22:53;;;;;;;7.30;3.20;;;;;;;14.12;45.24;100804.38;109160;1256;66845;-60
2023/03/29 11:25:49;;;;;;;6.70;3.40;;;;;;;14.23;44.43;100801.09;109178;1256;66837;-60
2023/03/29 11:28:35;;;;;;;7.60;3.60;;;;;;;14.40;43.78;100794.16;109109;1256;74142;-60
2023/03/29 11:31:31;;;;;;;7.00;3.40;;;;;;;14.41;43.46;100783.41;109087;1256;82425;-60
2023/03/29 11:34:11;;;;;;;10.90;4.40;;;;;;;14.91;43.74;100772.75;109109;1256;72731;-60
2023/03/29 11:36:43;;;;;;;;;;;;;;;15.13;43.18;100773.78;109154;1256;66778;-60
2023/03/29 11:39:14;;;;;;;7.30;3.80;;;;;;;15.08;42.84;100772.95;109140;1256;66819;-60
2023/03/29 11:41:45;;;;;;;6.40;4.20;;;;;;;14.80;42.22;100771.52;109094;1257;73213;-61
2023/03/29 11:44:19;;;;;;;7.70;3.50;;;;;;;14.94;42.53;100762.94;109139;1257;83485;-62
2023/03/29 11:47:16;;;;;;;6.00;3.40;;;;;;;14.74;42.13;100765.64;109064;1257;72896;-61
2023/03/29 11:49:50;;;;;;;7.40;3.90;;;;;;;14.54;41.86;100759.95;109089;1256;66922;-63
2023/03/29 11:52:22;;;;;;;5.60;3.50;;;;;;;14.59;42.30;100756.71;109147;1256;66893;-63
2023/03/29 11:55:09;;;;;;;6.00;3.60;;;;;;;14.65;41.96;100749.90;109170;1256;73246;-63
2023/03/29 11:57:43;;;;;;;6.40;3.20;;;;;;;14.62;41.97;100747.78;109140;1256;82316;-63
2023/03/29 12:00:18;;;;;;;7.60;2.90;;;;;;;14.49;42.12;100749.27;109103;1256;72690;-63
2023/03/29 12:02:54;;;;;;;4.40;2.50;;;;;;;14.37;42.16;100745.09;109118;1256;66914;-63
2023/03/29 12:05:30;;;;;;;5.40;2.60;;;;;;;14.22;42.06;100751.55;109082;1256;67055;-62
2023/03/29 12:08:15;;;;;;;5.00;2.80;;;;;;;13.75;41.52;100749.83;109177;1256;73894;-63
2023/03/29 12:11:05;;;;;;;5.90;2.40;;;;;;;13.27;41.76;100741.94;109063;1256;82686;-62
2023/03/29 12:13:39;;;;;;;4.40;2.60;;;;;;;13.30;42.57;100737.77;109102;1256;72729;-63
2023/03/29 12:16:34;;;;;;;6.10;3.00;;;;;;;13.71;42.72;100740.55;109036;1257;66908;-62
2023/03/29 12:19:13;;;;;;;6.10;3.10;;;;;;;14.09;42.36;100730.54;109043;1256;67010;-62
2023/03/29 12:21:43;;;;;;;3.90;2.50;;;;;;;14.36;42.20;100724.73;108997;1256;74209;-63
2023/03/29 12:24:14;;;;;;;6.70;2.90;;;;;;;14.48;41.99;100719.77;109078;1259;83727;-63
2023/03/29 12:26:52;;;;;;;;;;;;;;;14.97;42.20;100711.75;108962;1256;73962;-62
2023/03/29 12:29:51;;;;;;;4.30;2.40;;;;;;;15.19;41.82;100719.42;109097;1256;66989;-63
2023/03/29 12:32:41;;;;;;;4.30;2.40;;;;;;;15.17;41.36;100714.27;109083;1256;67331;-59
2023/03/29 12:35:41;;;;;;;4.50;2.60;;;;;;;15.22;41.10;100716.65;108952;1256;73408;-59
2023/03/29 12:38:30;;;;;;;5.30;2.80;;;;;;;15.41;41.13;100707.38;108909;1256;82640;-60
2023/03/29 12:41:20;;;;;;;6.20;2.50;;;;;;;15.67;40.78;100698.25;109011;1257;73923;-60
2023/03/29 12:44:24;;;;;;;4.90;2.00;;;;;;;15.88;40.50;100690.63;108714;1260;67435;-59
2023/03/29 12:46:57;;;;;;;5.30;2.80;;;;;;;15.69;40.48;100694.13;109058;1256;67233;-59
2023/03/29 12:49:28;;;;;;;4.80;2.00;;;;;;;15.37;40.39;100692.80;109112;1256;74167;-60
2023/03/29 12:51:58;;;;;;;4.60;1.80;;;;;;;15.18;40.64;100690.98;109147;1256;82857;-58
2023/03/29 12:54:29;;;;;;;3.90;2.30;;;;;;;15.06;40.62;100693.52;109096;1256;72851;-59
2023/03/29 12:57:00;;;;;;;4.50;1.90;;;;;;;14.91;40.60;100688.45;109143;1256;66910;-59
2023/03/29 12:59:42;;;;;;;4.40;2.40;;;;;;;14.81;40.54;100688.45;109152;1257;66893;-60
2023/03/29 13:02:13;;;;;;;4.50;2.70;;;;;;;14.62;40.38;100693.96;109080;1257;73192;-59
2023/03/29 13:04:42;;;;;;;4.30;2.30;;;;;;;14.33;40.23;100693.42;109090;1257;82294;-59
2023/03/29 13:07:28;;;;;;;4.80;2.80;;;;;;;13.94;40.34;100691.89;109071;1257;73749;-61
2023/03/29 13:09:57;;;;;;;4.20;2.20;;;;;;;13.70;40.89;100696.30;109068;1258;66900;-60
2023/03/29 13:12:49;;;;;;;4.90;1.90;;;;;;;13.42;40.63;100696.51;109089;1257;66784;-58
2023/03/29 13:15:17;;;;;;;3.80;1.70;;;;;;;12.99;40.34;100697.98;109117;1256;74230;-59
2023/03/29 13:18:15;;;;;;;4.20;1.70;;;;;;;12.61;40.62;100690.81;109146;1256;81478;-59
2023/03/29 13:20:53;;;;;;;3.30;1.70;;;;;;;12.32;40.70;100690.05;109163;1257;73740;-59
2023/03/29 13:23:36;;;;;;;2.80;1.70;;;;;;;12.11;40.94;100688.08;109125;1256;66888;-59
2023/03/29 13:26:30;;;;;;;8.10;2.40;;;;;;;11.91;41.37;100686.00;109186;1256;66806;-59
2023/03/29 13:29:19;;;;;;;4.60;2.00;;;;;;;11.78;41.48;100684.38;109126;1256;74167;-59
2023/03/29 13:32:06;;;;;;;5.60;2.50;;;;;;;11.65;41.89;100686.42;109043;1257;83380;-59
2023/03/29 13:34:56;;;;;;;4.70;2.80;;;;;;;11.52;42.17;100680.08;109074;1257;73210;-60
2023/03/29 13:38:01;;;;;;;6.60;2.90;;;;;;;11.52;42.36;100677.63;109091;1257;67391;-58
2023/03/29 13:40:33;;;;;;;5.10;2.60;;;;;;;11.62;42.66;100679.55;109132;1256;66903;-59
2023/03/29 13:43:17;;;;;;;5.40;2.50;;;;;;;11.64;42.76;100669.14;109089;1256;74034;-58
2023/03/29 13:46:17;;;;;;;5.60;2.20;;;;;;;11.64;42.85;100663.73;109187;1256;81244;-59
2023/03/29 13:49:13;;;;;;;3.80;2.20;;;;;;;11.55;42.63;100662.64;109111;1256;73870;-58
2023/03/29 13:51:58;;;;;;;3.50;2.10;;;;;;;11.51;42.83;100664.92;109164;1256;66806;-57
2023/03/29 13:54:34;;;;;;;4.00;2.50;;;;;;;11.51;43.01;100663.15;109290;1256;66981;-61
2023/03/29 13:57:20;;;;;;;6.20;2.40;;;;;;;11.58;42.96;100664.64;109089;1256;74184;-58
2023/03/29 14:00:06;;;;;;;4.90;2.60;;;;;;;11.70;42.96;100658.77;109288;1256;83507;-58
2023/03/29 14:02:52;;;;;;;4.50;2.30;;;;;;;11.89;43.11;100660.69;109124;1256;73128;-59
2023/03/29 14:05:36;;;;;;;4.90;2.00;;;;;;;12.01;42.44;100657.08;109138;1256;66891;-60
2023/03/29 14:08:30;;;;;;;5.80;2.80;;;;;;;12.19;43.17;100661.83;109239;1256;66804;-59
2023/03/29 14:11:04;;;;;;;5.80;2.00;;;;;;;12.42;42.53;100662.27;109077;1256;72678;-59
2023/03/29 14:13:33;;;;;;;2.80;1.30;;;;;;;12.48;42.06;100659.41;109095;1256;82470;-59
2023/03/29 14:16:07;;;;;;;3.90;1.90;;;;;;;12.50;41.81;100663.05;109167;1256;74052;-59
2023/03/29 14:18:39;;;;;;;2.90;1.50;;;;;;;12.88;42.22;100653.73;109166;1256;66842;-58
2023/03/29 14:21:10;;;;;;;4.10;1.50;;;;;;;13.46;42.39;100644.91;109173;1256;66740;-58
2023/03/29 14:23:42;;;;;;;3.30;1.30;;;;;;;13.72;41.74;100643.71;109136;1256;73235;-58
2023/03/29 14:26:20;;;;;;;4.00;1.60;;;;;;;13.56;40.88;100643.75;109162;1256;82519;-58
2023/03/29 14:28:50;;;;;;;3.70;1.60;;;;;;;13.25;40.67;100645.83;109026;1256;208200;-57
2023/03/29 14:31:21;;;;;;;3.60;1.40;;;;;;;13.05;40.49;100645.46;109123;1256;66847;-57
2023/03/29 14:33:58;;;;;;;3.50;1.30;;;;;;;12.88;40.67;100644.95;109161;1256;66863;-57
2023/03/29 14:36:27;;;;;;;4.40;2.00;;;;;;;12.84;40.60;100645.34;109157;1256;73486;-58
2023/03/29 14:38:58;;;;;;;4.70;1.90;;;;;;;13.16;40.83;100633.41;109131;1256;83605;-58
2023/03/29 14:41:30;;;;;;;3.80;2.00;;;;;;;13.82;40.76;100626.73;109101;1256;72286;-58
2023/03/29 14:43:59;;;;;;;5.20;2.30;;;;;;;14.10;39.54;100623.85;109133;1256;66931;-57
2023/03/29 14:46:27;;;;;;;6.50;3.60;;;;;;;13.85;39.31;100622.55;109110;1256;66837;-59
2023/03/29 14:48:56;;;;;;;4.10;2.30;;;;;;;13.97;39.40;100620.08;109130;1256;73477;-59
2023/03/29 14:51:29;;;;;;;5.60;2.20;;;;;;;14.10;39.18;100613.47;109219;1256;83474;-59
2023/03/29 14:53:59;;;;;;;3.10;1.40;;;;;;;14.35;39.40;100609.98;109166;1256;72784;-58
2023/03/29 14:56:28;;;;;;;5.10;1.70;;;;;;;14.54;38.97;100613.98;109145;1256;66867;-58
2023/03/29 14:58:56;;;;;;;2.90;1.40;;;;;;;14.06;37.91;100613.66;109071;1256;66755;-58
2023/03/29 15:01:25;;;;;;;2.00;0.90;;;;;;;13.31;38.24;100614.70;109216;1256;73787;-58
2023/03/29 15:04:10;;;;;;;1.60;1.00;;;;;;;12.86;38.91;100619.11;109196;1256;81670;-58
2023/03/29 15:06:41;;;;;;;1.40;0.90;;;;;;;12.65;39.61;100619.47;109107;1256;72917;-60
2023/03/29 15:09:18;;;;;;;2.30;1.00;;;;;;;12.78;40.02;100611.94;109090;1256;66914;-59
2023/03/29 15:11:54;;;;;;;1.90;0.80;;;;;;;12.89;40.26;100615.27;109095;1256;66836;-60
2023/03/29 15:14:25;;;;;;;2.00;1.30;;;;;;;13.10;40.11;100609.45;109082;1256;73101;-60
2023/03/29 15:17:00;;;;;;;2.10;1.30;;;;;;;12.93;40.15;100615.09;109226;1256;83304;-60
2023/03/29 15:19:29;;;;;;;1.60;1.00;;;;;;;12.63;40.12;100621.98;109114;1256;73693;-60